createdAt,value
2023-04-02T00:00:07.650Z,12.85
2023-04-02T00:03:01.434Z,12.65
2023-04-02T00:05:56.003Z,11.40
2023-04-02T00:08:38.909Z,10.48
2023-04-02T00:11:30.910Z,11.98
2023-04-02T00:14:06.330Z,11.50
2023-04-02T00:16:41.472Z,11.45
2023-04-02T00:19:18.375Z,11.43
2023-04-02T00:21:52.972Z,11.00
2023-04-02T00:24:25.938Z,11.27
2023-04-02T00:29:31.752Z,10.85
2023-04-02T00:32:05.894Z,12.18
2023-04-02T00:34:39.298Z,11.45
2023-04-02T00:37:23.638Z,11.38
2023-04-02T00:40:01.543Z,11.32
2023-04-02T00:42:36.267Z,11.70
2023-04-02T00:45:20.334Z,11.60
2023-04-02T00:47:54.650Z,11.90
2023-04-02T00:50:31.321Z,11.15
2023-04-02T00:53:11.697Z,11.20
2023-04-02T00:55:45.413Z,10.13
2023-04-02T00:58:23.171Z,11.30
2023-04-02T01:00:56.698Z,10.13
2023-04-02T01:03:36.349Z,10.45
2023-04-02T01:06:12.377Z,10.95
2023-04-02T01:08:57.975Z,11.00
2023-04-02T01:12:00.349Z,11.13
2023-04-02T01:14:44.267Z,10.77
2023-04-02T01:17:31.859Z,10.10
2023-04-02T01:20:34.434Z,11.20
2023-04-02T01:23:16.971Z,9.63
2023-04-02T01:25:55.109Z,10.85
2023-04-02T01:28:38.055Z,10.35
2023-04-02T01:31:12.701Z,9.95
2023-04-02T01:33:45.645Z,10.60
2023-04-02T01:39:04.639Z,11.95
2023-04-02T01:41:43.826Z,11.40
2023-04-02T01:44:24.122Z,10.30
2023-04-02T01:47:00.816Z,10.35
2023-04-02T01:49:34.037Z,10.05
2023-04-02T01:52:07.565Z,9.57
2023-04-02T01:54:41.073Z,9.07
2023-04-02T01:57:14.612Z,9.05
2023-04-02T01:59:47.604Z,8.82
2023-04-02T02:04:55.753Z,9.32
2023-04-02T02:07:29.909Z,9.35
2023-04-02T02:10:03.427Z,8.93
2023-04-02T02:12:36.444Z,9.63
2023-04-02T02:15:16.523Z,8.88
2023-04-02T02:17:51.028Z,9.23
2023-04-02T02:20:24.249Z,8.27
2023-04-02T02:22:58.036Z,8.00
2023-04-02T02:25:34.037Z,8.32
2023-04-02T02:28:10.921Z,8.23
2023-04-02T02:30:48.500Z,8.35
2023-04-02T02:33:26.395Z,7.88
2023-04-02T02:36:06.766Z,8.07
2023-04-02T02:38:53.250Z,7.63
2023-04-02T02:41:41.423Z,8.60
2023-04-02T02:44:20.710Z,7.38
2023-04-02T02:46:57.696Z,7.68
2023-04-02T02:49:34.327Z,8.25
2023-04-02T02:52:16.702Z,8.15
2023-04-02T02:54:59.758Z,7.10
2023-04-02T02:57:40.695Z,7.32
2023-04-02T03:00:16.961Z,7.60
2023-04-02T03:02:50.623Z,7.32
2023-04-02T03:05:29.257Z,8.27
2023-04-02T03:08:17.923Z,7.70
2023-04-02T03:10:56.703Z,7.25
2023-04-02T03:13:35.203Z,7.72
2023-04-02T03:16:16.190Z,7.93
2023-04-02T03:18:55.307Z,7.45
2023-04-02T03:21:37.884Z,7.93
2023-04-02T03:24:17.642Z,7.72
2023-04-02T03:26:57.191Z,7.47
2023-04-02T03:29:33.169Z,8.05
2023-04-02T03:32:13.440Z,7.75
2023-04-02T03:34:50.968Z,6.55
2023-04-02T03:37:30.918Z,7.97
2023-04-02T03:40:09.873Z,7.25
2023-04-02T03:42:47.341Z,6.78
2023-04-02T03:45:23.710Z,6.80
2023-04-02T03:48:00.613Z,8.23
2023-04-02T03:50:39.308Z,6.60
2023-04-02T03:53:13.865Z,6.00
2023-04-02T03:55:46.829Z,6.53
2023-04-02T03:58:25.985Z,6.30
2023-04-02T04:01:05.493Z,6.82
2023-04-02T04:03:42.348Z,6.72
2023-04-02T04:06:22.160Z,6.53
2023-04-02T04:09:00.660Z,6.47
2023-04-02T04:11:36.692Z,6.47
2023-04-02T04:14:17.635Z,6.00
2023-04-02T04:16:56.505Z,6.18
2023-04-02T04:19:39.103Z,6.40
2023-04-02T04:22:17.851Z,6.05
2023-04-02T04:24:54.132Z,5.65
2023-04-02T04:27:34.717Z,6.38
2023-04-02T04:30:18.187Z,6.60
2023-04-02T04:32:58.233Z,6.18
2023-04-02T04:35:35.573Z,5.85
2023-04-02T04:38:15.701Z,6.90
2023-04-02T04:40:54.840Z,6.88
2023-04-02T04:43:39.983Z,6.60
2023-04-02T04:46:19.098Z,5.88
2023-04-02T04:48:58.113Z,5.53
2023-04-02T04:51:35.436Z,6.18
2023-04-02T04:54:13.865Z,6.30
2023-04-02T04:56:52.719Z,6.22
2023-04-02T04:59:30.819Z,5.60
2023-04-02T05:02:12.738Z,6.75
2023-04-02T05:04:50.752Z,5.50
2023-04-02T05:07:29.466Z,6.45
2023-04-02T05:10:09.282Z,5.70
2023-04-02T05:12:52.346Z,5.55
2023-04-02T05:15:31.233Z,6.88
2023-04-02T05:18:19.931Z,6.45
2023-04-02T05:20:57.748Z,6.80
2023-04-02T05:23:35.999Z,6.57
2023-04-02T05:26:14.905Z,5.97
2023-04-02T05:28:55.754Z,6.88
2023-04-02T05:31:37.791Z,5.95
2023-04-02T05:34:12.698Z,6.45
2023-04-02T05:36:48.813Z,6.47
2023-04-02T05:39:23.992Z,6.55
2023-04-02T05:42:04.463Z,6.32
2023-04-02T05:45:09.471Z,7.32
2023-04-02T05:47:45.310Z,6.07
2023-04-02T05:50:30.286Z,5.95
2023-04-02T05:53:09.584Z,6.80
2023-04-02T05:55:51.317Z,6.35
2023-04-02T05:58:36.089Z,6.45
2023-04-02T06:01:42.067Z,6.88
2023-04-02T06:04:27.499Z,6.32
2023-04-02T06:07:05.334Z,6.82
2023-04-02T06:09:44.636Z,7.55
2023-04-02T06:12:24.974Z,7.47
2023-04-02T06:14:58.241Z,6.20
2023-04-02T06:17:47.923Z,6.20
2023-04-02T06:20:21.894Z,6.35
2023-04-02T06:22:58.217Z,6.03
2023-04-02T06:25:35.027Z,6.13
2023-04-02T06:28:15.346Z,6.68
2023-04-02T06:31:02.217Z,6.55
2023-04-02T06:33:42.073Z,5.78
2023-04-02T06:36:15.609Z,6.10
2023-04-02T06:38:50.162Z,5.40
2023-04-02T06:41:25.890Z,6.00
2023-04-02T06:44:14.042Z,5.35
2023-04-02T06:47:12.933Z,5.65
2023-04-02T06:49:51.242Z,5.05
2023-04-02T06:52:29.596Z,5.70
2023-04-02T06:55:08.517Z,5.88
2023-04-02T06:57:43.004Z,4.45
2023-04-02T07:00:29.463Z,5.25
2023-04-02T07:03:07.430Z,5.97
2023-04-02T07:05:43.117Z,5.57
2023-04-02T07:08:16.627Z,6.10
2023-04-02T07:13:31.825Z,4.80
2023-04-02T07:16:05.499Z,5.13
2023-04-02T07:18:38.704Z,5.18
2023-04-02T07:21:14.076Z,5.00
2023-04-02T07:23:48.897Z,4.63
2023-04-02T07:26:23.758Z,5.32
2023-04-02T07:28:57.472Z,4.25
2023-04-02T07:31:30.621Z,5.07
2023-04-02T07:34:03.505Z,4.85
2023-04-02T07:36:37.589Z,5.25
2023-04-02T07:39:10.494Z,5.00
2023-04-02T07:44:25.765Z,4.85
2023-04-02T07:46:58.662Z,5.20
2023-04-02T07:49:31.498Z,4.80
2023-04-02T07:52:05.959Z,4.55
2023-04-02T07:54:39.944Z,4.38
2023-04-02T07:57:13.247Z,5.13
2023-04-02T07:59:46.449Z,4.97
2023-04-02T08:02:22.687Z,3.72
2023-04-02T08:04:55.553Z,4.43
2023-04-02T08:07:29.701Z,3.70
2023-04-02T08:10:02.520Z,4.95
2023-04-02T08:12:35.614Z,5.00
2023-04-02T08:15:09.504Z,4.15
2023-04-02T08:17:43.178Z,4.10
2023-04-02T08:20:18.103Z,3.83
2023-04-02T08:22:52.395Z,4.55
2023-04-02T08:25:25.619Z,4.00
2023-04-02T08:28:01.591Z,4.15
2023-04-02T08:30:34.389Z,3.80
2023-04-02T08:35:40.347Z,3.30
2023-04-02T08:38:16.602Z,3.72
2023-04-02T08:40:51.948Z,3.55
2023-04-02T08:43:45.032Z,4.28
2023-04-02T08:46:25.851Z,3.80
2023-04-02T08:49:01.963Z,3.25
2023-04-02T08:51:38.546Z,3.97
2023-04-02T08:54:18.660Z,4.35
2023-04-02T08:56:55.966Z,3.75
2023-04-02T08:59:33.858Z,3.22
2023-04-02T09:02:30.511Z,3.25
2023-04-02T09:05:08.110Z,3.58
2023-04-02T09:07:42.147Z,3.28
2023-04-02T09:10:17.563Z,4.05
2023-04-02T09:12:53.766Z,3.60
2023-04-02T09:15:34.546Z,2.85
2023-04-02T09:18:15.039Z,3.40
2023-04-02T09:20:49.287Z,3.03
2023-04-02T09:23:25.969Z,4.00
2023-04-02T09:26:04.479Z,3.28
2023-04-02T09:28:38.529Z,2.95
2023-04-02T09:31:20.159Z,3.90
2023-04-02T09:33:54.747Z,3.03
2023-04-02T09:36:35.097Z,3.70
2023-04-02T09:39:18.974Z,3.92
2023-04-02T09:42:04.895Z,3.60
2023-04-02T09:44:38.390Z,3.70
2023-04-02T09:47:28.720Z,3.45
2023-04-02T09:50:14.919Z,3.22
2023-04-02T09:52:48.082Z,3.45
2023-04-02T09:55:27.368Z,3.53
2023-04-02T09:58:14.164Z,4.28
2023-04-02T10:00:52.067Z,3.22
2023-04-02T10:03:27.350Z,3.83
2023-04-02T10:06:09.266Z,3.05
2023-04-02T10:08:43.734Z,3.80
2023-04-02T10:11:22.985Z,3.70
2023-04-02T10:14:02.682Z,3.60
2023-04-02T10:16:41.609Z,3.60
2023-04-02T10:19:24.225Z,3.78
2023-04-02T10:21:59.083Z,3.25
2023-04-02T10:24:31.914Z,3.65
2023-04-02T10:30:03.968Z,3.65
2023-04-02T10:32:41.964Z,3.22
2023-04-02T10:35:25.166Z,3.20
2023-04-02T10:38:17.280Z,2.95
2023-04-02T10:40:57.089Z,3.17
2023-04-02T10:43:50.590Z,3.92
2023-04-02T10:49:14.834Z,3.38
2023-04-02T10:51:55.230Z,2.63
2023-04-02T10:54:39.207Z,3.25
2023-04-02T10:57:23.352Z,4.03
2023-04-02T11:00:00.772Z,3.28
2023-04-02T11:02:40.476Z,2.63
2023-04-02T11:05:20.281Z,2.92
2023-04-02T11:08:01.152Z,2.92
2023-04-02T11:10:39.498Z,2.25
2023-04-02T11:13:19.671Z,2.97
2023-04-02T11:15:53.820Z,2.40
2023-04-02T11:18:34.153Z,3.10
2023-04-02T11:21:08.118Z,2.83
2023-04-02T11:23:57.386Z,2.80
2023-04-02T11:26:38.324Z,2.83
2023-04-02T11:29:23.781Z,2.53
2023-04-02T11:32:16.975Z,3.17
2023-04-02T11:35:24.135Z,2.50
2023-04-02T11:37:58.510Z,2.22
2023-04-02T11:40:49.746Z,2.75
2023-04-02T11:43:51.379Z,2.22
2023-04-02T11:46:46.231Z,2.05
2023-04-02T11:49:36.985Z,2.85
2023-04-02T11:52:28.652Z,2.25
2023-04-02T11:55:24.475Z,1.83
2023-04-02T11:58:05.804Z,2.10
2023-04-02T12:01:14.798Z,2.22
2023-04-02T12:04:11.601Z,2.35
2023-04-02T12:07:10.875Z,2.10
2023-04-02T12:09:47.982Z,1.85
2023-04-02T12:12:27.668Z,2.33
2023-04-02T12:15:01.672Z,1.90
2023-04-02T12:17:37.053Z,1.80
2023-04-02T12:20:22.152Z,1.73
2023-04-02T12:22:57.074Z,1.63
2023-04-02T12:25:33.796Z,1.63
2023-04-02T12:28:17.776Z,1.58
2023-04-02T12:30:52.753Z,1.60
2023-04-02T12:33:30.815Z,2.25
2023-04-02T12:36:05.679Z,1.92
2023-04-02T12:38:47.024Z,1.73
2023-04-02T12:41:24.980Z,1.85
2023-04-02T12:43:59.353Z,2.10
2023-04-02T12:46:35.391Z,1.48
2023-04-02T12:49:23.148Z,1.52
2023-04-02T12:51:57.226Z,1.55
2023-04-02T12:54:32.699Z,1.98
2023-04-02T12:57:40.241Z,2.00
2023-04-02T13:00:32.303Z,1.60
2023-04-02T13:03:21.651Z,1.95
2023-04-02T13:05:56.353Z,1.70
2023-04-02T13:08:33.078Z,1.40
2023-04-02T13:11:07.049Z,1.45
2023-04-02T13:13:44.158Z,1.83
2023-04-02T13:16:30.394Z,1.52
2023-04-02T13:19:22.840Z,2.55
2023-04-02T13:22:16.655Z,2.30
2023-04-02T13:25:07.287Z,2.15
2023-04-02T13:27:42.769Z,2.30
2023-04-02T13:30:30.671Z,2.40
2023-04-02T13:33:16.737Z,1.67
2023-04-02T13:35:52.506Z,2.00
2023-04-02T13:38:29.269Z,1.50
2023-04-02T13:41:02.251Z,1.83
2023-04-02T13:46:20.772Z,2.03
2023-04-02T13:48:55.619Z,2.25
2023-04-02T13:51:37.160Z,1.95
2023-04-02T13:54:15.992Z,1.80
2023-04-02T13:56:49.359Z,1.98
2023-04-02T13:59:25.976Z,2.20
2023-04-02T14:02:07.576Z,1.40
2023-04-02T14:04:44.655Z,2.17
2023-04-02T14:07:45.136Z,1.90
2023-04-02T14:10:26.971Z,1.65
2023-04-02T14:13:13.369Z,2.08
2023-04-02T14:16:06.981Z,1.50
2023-04-02T14:21:42.390Z,2.22
2023-04-02T14:24:21.972Z,1.83
2023-04-02T14:27:07.021Z,2.53
2023-04-02T14:29:45.773Z,2.05
2023-04-02T14:32:25.873Z,1.90
2023-04-02T14:35:06.857Z,1.80
2023-04-02T14:37:53.104Z,1.85
2023-04-02T14:40:30.556Z,2.10
2023-04-02T14:43:08.252Z,2.13
2023-04-02T14:45:55.431Z,1.65
2023-04-02T14:48:41.635Z,2.25
2023-04-02T14:51:23.387Z,1.80
2023-04-02T14:54:03.723Z,1.98
2023-04-02T14:56:40.701Z,2.03
2023-04-02T14:59:26.271Z,1.77
2023-04-02T15:02:04.225Z,2.13
2023-04-02T15:04:44.212Z,1.90
2023-04-02T15:07:23.360Z,1.67
2023-04-02T15:10:09.980Z,2.03
2023-04-02T15:12:46.453Z,2.10
2023-04-02T15:15:37.016Z,1.70
2023-04-02T15:18:15.252Z,2.28
2023-04-02T15:20:58.460Z,1.88
2023-04-02T15:26:21.738Z,1.63
2023-04-02T15:29:05.507Z,1.85
2023-04-02T15:31:41.543Z,1.75
2023-04-02T15:34:24.257Z,2.33
2023-04-02T15:37:08.203Z,1.70
2023-04-02T15:40:02.550Z,1.58
2023-04-02T15:42:40.749Z,2.53
2023-04-02T15:45:26.335Z,2.10
2023-04-02T15:48:24.856Z,1.42
2023-04-02T15:51:10.036Z,1.67
2023-04-02T15:53:56.227Z,1.58
2023-04-02T15:56:46.376Z,1.63
2023-04-02T15:59:42.521Z,2.53
2023-04-02T16:02:50.857Z,2.25
2023-04-02T16:05:36.156Z,1.67
2023-04-02T16:08:27.061Z,1.80
2023-04-02T16:11:00.121Z,1.90
2023-04-02T16:13:36.931Z,1.88
2023-04-02T16:16:15.199Z,1.90
2023-04-02T16:18:56.254Z,1.85
2023-04-02T16:21:34.015Z,1.50
2023-04-02T16:24:12.735Z,2.03
2023-04-02T16:26:55.713Z,1.70
2023-04-02T16:29:53.878Z,1.70
2023-04-02T16:32:53.731Z,2.22
2023-04-02T16:35:43.170Z,2.15
2023-04-02T16:38:30.341Z,1.90
2023-04-02T16:41:11.890Z,2.20
2023-04-02T16:43:58.093Z,1.80
2023-04-02T16:46:42.795Z,1.52
2023-04-02T16:49:26.079Z,1.58
2023-04-02T16:54:52.587Z,1.73
2023-04-02T16:57:38.173Z,1.38
2023-04-02T17:00:22.428Z,1.90
2023-04-02T17:03:10.062Z,1.88
2023-04-02T17:05:53.960Z,1.55
2023-04-02T17:08:28.549Z,2.13
2023-04-02T17:11:11.916Z,1.70
2023-04-02T17:13:53.788Z,1.50
2023-04-02T17:16:39.590Z,1.40
2023-04-02T17:19:16.674Z,1.48
2023-04-02T17:21:53.911Z,1.50
2023-04-02T17:24:29.301Z,2.03
2023-04-02T17:27:07.244Z,1.50
2023-04-02T17:29:44.208Z,1.60
2023-04-02T17:32:22.584Z,1.20
2023-04-02T17:34:57.221Z,2.15
2023-04-02T17:37:35.919Z,1.30
2023-04-02T17:40:25.463Z,2.03
2023-04-02T17:43:06.062Z,1.58
2023-04-02T17:45:47.030Z,1.40
2023-04-02T17:48:27.076Z,1.40
2023-04-02T17:51:11.482Z,1.75
2023-04-02T17:53:53.659Z,1.23
2023-04-02T17:56:59.193Z,1.33
2023-04-02T17:59:44.929Z,1.20
2023-04-02T18:02:36.174Z,1.20
2023-04-02T18:05:18.102Z,1.60
2023-04-02T18:08:04.879Z,1.48
2023-04-02T18:10:47.206Z,1.30
2023-04-02T18:13:33.816Z,1.10
2023-04-02T18:16:38.900Z,1.33
2023-04-02T18:19:32.650Z,1.63
2023-04-02T18:22:14.404Z,1.50
2023-04-02T18:25:06.088Z,1.35
2023-04-02T18:27:56.529Z,1.52
2023-04-02T18:30:37.838Z,1.50
2023-04-02T18:33:36.978Z,1.17
2023-04-02T18:36:28.049Z,1.27
2023-04-02T18:39:07.898Z,1.40
2023-04-02T18:41:55.132Z,1.45
2023-04-02T18:44:43.210Z,1.20
2023-04-02T18:47:24.539Z,1.23
2023-04-02T18:50:12.107Z,1.48
2023-04-02T18:52:46.673Z,1.63
2023-04-02T18:55:24.265Z,1.98
2023-04-02T18:58:04.061Z,1.30
2023-04-02T19:00:44.263Z,2.13
2023-04-02T19:03:24.209Z,1.55
2023-04-02T19:06:03.098Z,1.48
2023-04-02T19:08:48.323Z,1.63
2023-04-02T19:11:30.573Z,1.52
2023-04-02T19:14:12.004Z,1.63
2023-04-02T19:17:05.781Z,1.17
2023-04-02T19:19:44.468Z,2.05
2023-04-02T19:22:39.521Z,1.33
2023-04-02T19:25:31.597Z,1.33
2023-04-02T19:28:13.590Z,1.50
2023-04-02T19:31:04.977Z,1.20
2023-04-02T19:33:46.279Z,1.75
2023-04-02T19:36:35.055Z,1.40
2023-04-02T19:39:32.430Z,1.42
2023-04-02T19:42:18.526Z,1.75
2023-04-02T19:44:53.440Z,1.60
2023-04-02T19:47:28.409Z,1.77
2023-04-02T19:50:02.140Z,1.70
2023-04-02T19:55:08.604Z,1.83
2023-04-02T19:57:42.703Z,1.80
2023-04-02T20:00:18.487Z,1.75
2023-04-02T20:02:56.226Z,2.33
2023-04-02T20:05:38.290Z,1.98
2023-04-02T20:08:15.092Z,2.25
2023-04-02T20:10:50.998Z,2.05
2023-04-02T20:13:26.082Z,2.05
2023-04-02T20:16:01.442Z,1.60
2023-04-02T20:18:37.176Z,2.03
2023-04-02T20:21:11.294Z,1.90
2023-04-02T20:23:44.708Z,1.70
2023-04-02T20:26:18.213Z,1.52
2023-04-02T20:28:51.613Z,1.80
2023-04-02T20:31:24.865Z,1.80
2023-04-02T20:34:00.280Z,1.65
2023-04-02T20:36:33.426Z,1.80
2023-04-02T20:39:08.061Z,1.95
2023-04-02T20:41:41.208Z,1.58
2023-04-02T20:44:14.244Z,1.55
2023-04-02T20:46:47.413Z,2.13
2023-04-02T20:51:54.625Z,1.60
2023-04-02T20:54:27.557Z,1.50
2023-04-02T20:57:00.364Z,1.58
2023-04-02T20:59:33.110Z,2.38
2023-04-02T21:02:05.802Z,2.15
2023-04-02T21:04:39.934Z,1.70
2023-04-02T21:07:12.861Z,1.65
2023-04-02T21:09:45.648Z,1.63
2023-04-02T21:12:18.487Z,1.90
2023-04-02T21:14:56.778Z,1.58
2023-04-02T21:17:29.952Z,1.98
2023-04-02T21:20:04.462Z,1.73
2023-04-02T21:22:37.303Z,1.50
2023-04-02T21:25:11.003Z,1.27
2023-04-02T21:27:44.247Z,2.38
2023-04-02T21:30:17.381Z,1.80
2023-04-02T21:32:50.290Z,1.48
2023-04-02T21:35:24.403Z,1.67
2023-04-02T21:37:57.238Z,1.70
2023-04-02T21:40:29.995Z,1.77
2023-04-02T21:43:02.706Z,1.90
2023-04-02T21:45:35.768Z,1.58
2023-04-02T21:48:08.773Z,1.30
2023-04-02T21:50:42.882Z,1.40
2023-04-02T21:53:15.599Z,1.85
2023-04-02T21:55:48.394Z,1.50
2023-04-02T21:58:21.103Z,1.50
2023-04-02T22:00:54.154Z,1.60
2023-04-02T22:06:08.335Z,1.30
2023-04-02T22:08:43.174Z,1.70
2023-04-02T22:11:17.921Z,1.75
2023-04-02T22:13:51.301Z,1.48
2023-04-02T22:16:26.658Z,1.33
2023-04-02T22:19:01.907Z,1.80
2023-04-02T22:21:37.400Z,1.50
2023-04-02T22:24:14.060Z,1.73
2023-04-02T22:26:47.490Z,1.20
2023-04-02T22:29:20.368Z,1.58
2023-04-02T22:34:25.836Z,1.67
2023-04-02T22:36:59.957Z,1.90
2023-04-02T22:39:32.819Z,1.42
2023-04-02T22:42:05.567Z,1.73
2023-04-02T22:44:38.301Z,1.15
2023-04-02T22:47:11.121Z,1.60
2023-04-02T22:52:17.936Z,1.57
2023-04-02T22:54:50.674Z,1.80
2023-04-02T22:57:23.436Z,1.45
2023-04-02T22:59:56.220Z,1.17
2023-04-02T23:02:29.005Z,1.20
2023-04-02T23:05:01.717Z,1.58
2023-04-02T23:07:36.579Z,1.80
2023-04-02T23:10:09.973Z,1.50
2023-04-02T23:12:42.657Z,1.27
2023-04-02T23:15:15.641Z,1.10
2023-04-02T23:20:21.249Z,1.50
2023-04-02T23:22:55.699Z,1.27
2023-04-02T23:25:28.520Z,1.23
2023-04-02T23:28:01.240Z,1.40
2023-04-02T23:30:34.518Z,1.10
2023-04-02T23:33:07.588Z,1.73
2023-04-02T23:38:16.764Z,1.38
2023-04-02T23:40:49.561Z,1.30
2023-04-02T23:43:22.277Z,1.50
2023-04-02T23:45:55.090Z,1.27
2023-04-02T23:48:27.770Z,1.10
2023-04-02T23:51:00.562Z,1.08
2023-04-02T23:53:35.652Z,1.50
2023-04-02T23:56:08.838Z,1.23
2023-04-02T23:58:41.677Z,1.00
